Time;durP1;ratioP1;P1;durP2;ratioP2;P2;SDS_P1;SDS_P2;PMS_P1;PMS_P2;Temp;Humidity;BMP_temperature;BMP_pressure;BME280_temperature;BME280_humidity;BME280_pressure;Samples;Min_cycle;Max_cycle;Signal;HPM_P1;HPM_P2
2022/12/13 00:01:51;;;;;;;26.05;10.43;;;;;;;0.02;100.00;100056.53;5061335;28;20147;-44
2022/12/13 00:04:20;;;;;;;19.50;9.80;;;;;;;0.00;100.00;100064.97;5050660;28;20059;-43
2022/12/13 00:06:48;;;;;;;19.08;9.68;;;;;;;-0.04;100.00;100055.78;5069253;28;20475;-43
2022/12/13 00:09:17;;;;;;;19.38;10.02;;;;;;;-0.09;100.00;100058.56;5068476;28;20070;-42
2022/12/13 00:11:44;;;;;;;24.73;10.93;;;;;;;-0.18;100.00;100054.06;5047528;28;20058;-42
2022/12/13 00:14:12;;;;;;;21.77;11.45;;;;;;;-0.21;100.00;100060.06;5065003;28;20055;-42
2022/12/13 00:16:44;;;;;;;23.20;11.65;;;;;;;-0.25;100.00;100061.75;5067372;28;20080;-42
2022/12/13 00:19:11;;;;;;;27.45;13.57;;;;;;;-0.30;100.00;100059.94;5060013;28;20124;-42
2022/12/13 00:21:38;;;;;;;31.75;15.82;;;;;;;-0.35;100.00;100064.63;5059996;28;20560;-46
2022/12/13 00:24:06;;;;;;;37.03;17.85;;;;;;;-0.41;100.00;100063.03;5055420;28;20053;-41
2022/12/13 00:26:33;;;;;;;38.80;18.25;;;;;;;-0.43;100.00;100062.53;5062883;28;20045;-42
2022/12/13 00:29:02;;;;;;;42.72;20.83;;;;;;;-0.41;100.00;100068.47;5050815;28;20046;-45
2022/12/13 00:31:32;;;;;;;45.30;24.58;;;;;;;-0.37;100.00;100067.59;5055856;28;20087;-42
2022/12/13 00:34:20;;;;;;;51.90;25.55;;;;;;;-0.35;100.00;100076.31;5032290;28;20076;-44
2022/12/13 00:36:47;;;;;;;60.88;31.08;;;;;;;-0.34;100.00;100072.47;5055043;28;20048;-43
2022/12/13 00:39:15;;;;;;;59.67;29.27;;;;;;;-0.31;100.00;100066.47;5066905;28;20398;-44
2022/12/13 00:41:43;;;;;;;72.47;32.42;;;;;;;-0.27;100.00;100072.94;5049930;28;20092;-42
2022/12/13 00:44:11;;;;;;;68.65;32.90;;;;;;;-0.23;100.00;100068.53;5060419;28;20044;-43
2022/12/13 00:46:40;;;;;;;63.55;30.17;;;;;;;-0.21;100.00;100076.41;5053472;28;20043;-42
2022/12/13 00:49:08;;;;;;;63.65;31.30;;;;;;;-0.18;100.00;100081.25;5055785;28;20103;-42
2022/12/13 00:51:35;;;;;;;69.93;32.10;;;;;;;-0.17;100.00;100091.03;5056047;28;20044;-49
2022/12/13 00:54:02;;;;;;;63.78;29.48;;;;;;;-0.16;100.00;100074.41;5066895;28;20486;-42
2022/12/13 00:56:31;;;;;;;69.85;37.20;;;;;;;-0.13;100.00;100078.47;5050534;28;20049;-42
2022/12/13 00:58:58;;;;;;;94.13;46.47;;;;;;;-0.11;100.00;100070.84;5057534;28;20037;-42
2022/12/13 01:01:28;;;;;;;95.00;52.95;;;;;;;-0.09;100.00;100079.53;5060512;28;20060;-42
2022/12/13 01:03:57;;;;;;;99.65;49.40;;;;;;;-0.09;100.00;100076.81;5086540;28;20051;-43
2022/12/13 01:06:34;;;;;;;89.82;47.00;;;;;;;-0.14;100.00;100074.16;5078211;28;20490;-42
2022/12/13 01:09:03;;;;;;;97.68;51.20;;;;;;;-0.13;100.00;100079.28;5073903;28;20052;-42
2022/12/13 01:11:30;;;;;;;76.63;39.40;;;;;;;-0.11;100.00;100073.56;5086895;28;20047;-42
2022/12/13 01:13:56;;;;;;;69.32;33.22;;;;;;;-0.13;100.00;100078.47;5068686;28;20632;-43
2022/12/13 01:16:23;;;;;;;62.90;31.05;;;;;;;-0.13;100.00;100073.03;5076913;28;20437;-42
2022/12/13 01:18:50;;;;;;;67.55;34.22;;;;;;;-0.10;100.00;100088.78;5070694;28;20483;-42
2022/12/13 01:21:19;;;;;;;68.50;37.25;;;;;;;-0.09;100.00;100074.09;5085262;28;20044;-42
2022/12/13 01:23:48;;;;;;;81.28;41.63;;;;;;;-0.09;100.00;100074.09;5069560;28;20052;-42
2022/12/13 01:26:17;;;;;;;76.82;41.65;;;;;;;-0.10;100.00;100072.44;5066677;28;20040;-43
2022/12/13 01:28:44;;;;;;;82.50;43.50;;;;;;;-0.08;100.00;100073.00;5066434;28;20055;-42
2022/12/13 01:31:14;;;;;;;86.72;42.33;;;;;;;-0.06;100.00;100065.34;5048710;28;20047;-42
2022/12/13 01:33:42;;;;;;;81.63;42.05;;;;;;;-0.03;100.00;100067.50;5085021;28;20039;-43
2022/12/13 01:36:12;;;;;;;63.53;32.90;;;;;;;-0.02;100.00;100069.91;5087012;28;20051;-42
2022/12/13 01:38:39;;;;;;;57.40;28.13;;;;;;;-0.01;100.00;100071.53;5077671;28;20056;-42
2022/12/13 01:41:06;;;;;;;52.25;25.70;;;;;;;0.02;100.00;100070.13;5080739;28;20444;-42
2022/12/13 01:43:43;;;;;;;47.60;22.13;;;;;;;0.03;100.00;100070.94;5086868;28;20040;-42
2022/12/13 01:46:10;;;;;;;50.40;22.80;;;;;;;0.05;100.00;100075.00;5086609;28;20159;-42
2022/12/13 01:48:46;;;;;;;42.15;19.83;;;;;;;0.06;100.00;100073.88;5080080;28;20033;-42
2022/12/13 01:51:16;;;;;;;41.05;20.83;;;;;;;0.10;100.00;100077.66;5080890;28;20063;-41
2022/12/13 01:53:45;;;;;;;35.20;16.00;;;;;;;0.13;100.00;100079.78;5076760;28;20036;-42
2022/12/13 01:56:20;;;;;;;37.17;18.52;;;;;;;0.16;100.00;100089.28;5074942;28;20437;-42
2022/12/13 01:58:49;;;;;;;40.50;20.25;;;;;;;0.18;100.00;100085.16;5070369;28;20047;-41
2022/12/13 02:01:16;;;;;;;42.67;22.50;;;;;;;0.19;100.00;100085.94;5070595;28;20063;-44
2022/12/13 02:03:44;;;;;;;45.10;20.77;;;;;;;0.21;100.00;100078.31;5082586;28;20032;-42
2022/12/13 02:06:16;;;;;;;34.63;19.27;;;;;;;0.24;100.00;100088.63;5082518;28;20048;-42
2022/12/13 02:08:44;;;;;;;32.47;18.25;;;;;;;0.26;100.00;100076.34;5077466;28;20140;-42
2022/12/13 02:11:12;;;;;;;46.00;21.27;;;;;;;0.26;100.00;100070.91;5065753;28;20055;-41
2022/12/13 02:13:39;;;;;;;35.22;19.55;;;;;;;0.26;100.00;100067.38;5075211;28;20402;-41
2022/12/13 02:16:09;;;;;;;32.83;17.23;;;;;;;0.27;100.00;100082.56;5087753;28;20409;-41
2022/12/13 02:19:11;;;;;;;38.80;18.75;;;;;;;0.28;100.00;100085.03;5089874;28;20047;-48
2022/12/13 02:21:59;;;;;;;27.92;15.02;;;;;;;0.28;100.00;100079.56;5086445;28;20040;-41
2022/12/13 02:24:34;;;;;;;28.77;13.77;;;;;;;0.27;100.00;100080.66;5087578;28;20055;-41
2022/12/13 02:27:35;;;;;;;25.30;13.93;;;;;;;0.23;100.00;100076.94;5081915;28;20459;-45
2022/12/13 02:30:18;;;;;;;31.30;13.98;;;;;;;0.22;100.00;100079.94;5087663;28;20048;-41
2022/12/13 02:33:19;;;;;;;28.63;14.93;;;;;;;0.18;100.00;100090.59;5086781;28;20032;-41
2022/12/13 02:35:54;;;;;;;28.08;14.02;;;;;;;0.16;100.00;100103.69;5089811;28;20055;-41
2022/12/13 02:38:25;;;;;;;25.15;14.43;;;;;;;0.13;100.00;100093.41;5089515;28;20044;-41
2022/12/13 02:41:15;;;;;;;27.38;15.50;;;;;;;0.11;100.00;100100.25;5099376;28;20056;-42
2022/12/13 02:44:00;;;;;;;23.02;13.90;;;;;;;0.08;100.00;100095.38;5090692;28;20052;-41
2022/12/13 02:46:31;;;;;;;29.40;14.45;;;;;;;0.03;100.00;100098.16;5081885;28;20047;-41
2022/12/13 02:48:59;;;;;;;29.70;15.30;;;;;;;-0.01;100.00;100092.47;5089967;28;20036;-41
2022/12/13 02:51:27;;;;;;;34.65;16.05;;;;;;;-0.05;100.00;100091.44;5088540;28;20588;-41
2022/12/13 02:53:54;;;;;;;37.70;18.13;;;;;;;-0.08;100.00;100092.81;5088696;28;20058;-41
2022/12/13 02:56:20;;;;;;;31.33;16.92;;;;;;;-0.13;100.00;100100.22;5089584;28;20097;-41
2022/12/13 02:58:52;;;;;;;39.15;17.33;;;;;;;-0.15;100.00;100099.72;5090026;28;20051;-44
2022/12/13 03:01:33;;;;;;;36.58;15.55;;;;;;;-0.18;100.00;100103.03;5098411;22;20297;-46
2022/12/13 03:04:29;;;;;;;31.92;15.32;;;;;;;-0.22;100.00;100102.00;5029457;28;20049;-45
2022/12/13 03:07:22;;;;;;;28.13;14.00;;;;;;;-0.23;100.00;100105.81;4989330;28;20045;-41
2022/12/13 03:10:05;;;;;;;27.85;14.27;;;;;;;-0.27;100.00;100102.06;5010367;28;20042;-40
2022/12/13 03:15:52;;;;;;;32.65;14.85;;;;;;;-0.34;100.00;100107.00;5024780;28;19932;-41
2022/12/13 03:18:21;;;;;;;36.47;15.65;;;;;;;-0.39;100.00;100107.06;5027711;28;20491;-40
2022/12/13 03:21:01;;;;;;;37.40;16.42;;;;;;;-0.43;100.00;100106.03;5026091;28;20068;-40
2022/12/13 03:23:28;;;;;;;43.28;18.30;;;;;;;-0.46;100.00;100101.16;5025465;28;20431;-45
2022/12/13 03:26:01;;;;;;;39.83;18.45;;;;;;;-0.46;100.00;100101.16;5027540;28;20056;-40
2022/12/13 03:28:28;;;;;;;48.88;20.92;;;;;;;-0.50;100.00;100106.38;5007594;28;20050;-41
2022/12/13 03:30:55;;;;;;;42.85;20.08;;;;;;;-0.48;100.00;100120.50;5017927;28;20053;-41
2022/12/13 03:33:22;;;;;;;52.00;21.60;;;;;;;-0.47;100.00;100110.41;5028652;28;20099;-41
2022/12/13 03:35:49;;;;;;;50.60;21.27;;;;;;;-0.46;100.00;100118.31;5028687;28;20069;-47
2022/12/13 03:38:18;;;;;;;50.72;22.95;;;;;;;-0.48;100.00;100114.25;5028595;28;20115;-41
2022/12/13 03:40:54;;;;;;;47.10;19.85;;;;;;;-0.51;100.00;100109.38;5028865;28;20068;-41
2022/12/13 03:43:21;;;;;;;36.60;21.17;;;;;;;-0.48;100.00;100095.22;5021963;28;20050;-46
2022/12/13 03:45:50;;;;;;;48.78;21.50;;;;;;;-0.50;100.00;100105.56;5026036;28;20045;-40
2022/12/13 03:48:17;;;;;;;51.92;20.10;;;;;;;-0.55;100.00;100100.16;5028213;28;20403;-41
2022/12/13 03:50:49;;;;;;;48.30;20.98;;;;;;;-0.56;100.00;100104.00;5028290;28;20076;-41
2022/12/13 03:53:15;;;;;;;46.03;22.17;;;;;;;-0.57;100.00;100099.66;5028426;28;20041;-41
2022/12/13 03:55:49;;;;;;;44.03;21.98;;;;;;;-0.59;100.00;100094.50;5028441;28;20037;-41
2022/12/13 03:58:16;;;;;;;53.60;22.73;;;;;;;-0.61;100.00;100088.56;5027955;28;20049;-41
2022/12/13 04:00:43;;;;;;;58.15;22.70;;;;;;;-0.61;100.00;100089.34;5025656;28;20049;-41
2022/12/13 04:03:09;;;;;;;50.28;22.67;;;;;;;-0.58;100.00;100098.03;5026405;28;20049;-41
2022/12/13 04:05:36;;;;;;;49.05;21.25;;;;;;;-0.57;100.00;100096.94;5026118;28;20041;-43
2022/12/13 04:08:04;;;;;;;59.10;24.00;;;;;;;-0.55;100.00;100098.25;5027418;28;20050;-41
2022/12/13 04:10:47;;;;;;;47.45;22.20;;;;;;;-0.53;100.00;100089.84;5026618;28;20037;-41
2022/12/13 04:13:32;;;;;;;52.45;23.55;;;;;;;-0.52;100.00;100086.81;5027542;28;20149;-40
2022/12/13 04:16:00;;;;;;;52.15;25.17;;;;;;;-0.53;100.00;100085.19;5024375;28;20052;-41
2022/12/13 04:18:27;;;;;;;51.30;23.15;;;;;;;-0.49;100.00;100085.44;5009548;28;20043;-44
2022/12/13 04:20:56;;;;;;;50.22;22.15;;;;;;;-0.42;100.00;100080.44;5025771;28;20144;-41
2022/12/13 04:23:24;;;;;;;53.80;22.08;;;;;;;-0.41;100.00;100079.34;5026368;28;20079;-41
2022/12/13 04:25:50;;;;;;;44.80;20.30;;;;;;;-0.37;100.00;100089.34;5008399;28;20041;-42
2022/12/13 04:28:17;;;;;;;47.15;18.88;;;;;;;-0.34;100.00;100080.63;5026162;28;20041;-41
2022/12/13 04:30:50;;;;;;;41.22;18.55;;;;;;;-0.31;100.00;100082.78;5026889;28;20076;-41
2022/12/13 04:33:21;;;;;;;47.25;21.35;;;;;;;-0.27;100.00;100085.72;5025850;28;20049;-44
2022/12/13 04:35:48;;;;;;;38.53;19.50;;;;;;;-0.23;100.00;100089.47;5015504;28;20037;-42
2022/12/13 04:38:15;;;;;;;42.97;20.23;;;;;;;-0.21;100.00;100079.94;5026985;28;20049;-41
2022/12/13 04:40:41;;;;;;;45.63;19.15;;;;;;;-0.18;100.00;100081.25;5026123;28;20045;-41
2022/12/13 04:43:08;;;;;;;45.08;20.08;;;;;;;-0.14;100.00;100076.88;5026393;28;20049;-40
2022/12/13 04:45:35;;;;;;;45.42;19.80;;;;;;;-0.12;100.00;100070.03;5012624;28;20064;-41
2022/12/13 04:48:02;;;;;;;50.03;19.42;;;;;;;-0.10;100.00;100067.00;5026327;28;20037;-41
2022/12/13 04:50:28;;;;;;;40.45;20.27;;;;;;;-0.07;100.00;100072.69;5025681;28;20466;-40
2022/12/13 04:52:55;;;;;;;42.25;17.55;;;;;;;-0.04;100.00;100071.28;5025209;28;20056;-41
2022/12/13 04:55:22;;;;;;;40.00;19.70;;;;;;;-0.02;100.00;100069.91;5025933;28;20045;-40
2022/12/13 04:57:48;;;;;;;41.25;21.35;;;;;;;0.02;100.00;100075.56;5027938;28;20382;-41
2022/12/13 05:00:16;;;;;;;43.60;19.77;;;;;;;0.04;100.00;100076.09;5025677;28;20056;-45
2022/12/13 05:02:42;;;;;;;41.92;18.35;;;;;;;0.05;100.00;100079.63;5018748;28;20065;-41
2022/12/13 05:05:10;;;;;;;37.42;17.90;;;;;;;0.06;100.00;100086.66;5025073;28;20056;-41
2022/12/13 05:07:37;;;;;;;41.60;19.13;;;;;;;0.06;100.00;100082.03;5020207;28;20529;-41
2022/12/13 05:10:08;;;;;;;42.22;18.20;;;;;;;0.08;100.00;100079.03;5026292;28;20362;-41
2022/12/13 05:12:35;;;;;;;41.05;19.52;;;;;;;0.08;100.00;100074.38;5023966;28;20045;-41
2022/12/13 05:15:01;;;;;;;36.03;17.83;;;;;;;0.10;100.00;100076.84;5033799;28;20053;-41
2022/12/13 05:17:28;;;;;;;34.22;17.80;;;;;;;0.13;100.00;100074.34;5025636;28;20407;-41
2022/12/13 05:19:55;;;;;;;36.53;18.42;;;;;;;0.16;100.00;100071.00;5025580;28;20141;-46
2022/12/13 05:22:21;;;;;;;32.38;17.00;;;;;;;0.17;100.00;100075.38;5026540;28;20051;-41
2022/12/13 05:24:48;;;;;;;34.38;17.00;;;;;;;0.20;100.00;100069.34;5022838;28;20673;-40
2022/12/13 05:27:15;;;;;;;35.35;17.08;;;;;;;0.24;100.00;100075.03;5024609;28;20047;-41
2022/12/13 05:29:51;;;;;;;32.47;16.40;;;;;;;0.25;100.00;100072.00;5013079;28;20107;-42
2022/12/13 05:32:37;;;;;;;32.67;16.15;;;;;;;0.28;100.00;100074.13;5024937;28;20112;-47
2022/12/13 05:35:12;;;;;;;27.95;15.80;;;;;;;0.30;100.00;100073.81;5014692;28;20053;-41
2022/12/13 05:37:39;;;;;;;26.55;16.35;;;;;;;0.32;100.00;100072.44;5024506;28;20050;-41
2022/12/13 05:40:07;;;;;;;35.38;17.60;;;;;;;0.32;100.00;100069.69;5024024;28;20072;-41
2022/12/13 05:42:36;;;;;;;33.72;18.95;;;;;;;0.34;100.00;100072.97;5026333;28;20062;-41
2022/12/13 05:45:06;;;;;;;25.10;15.85;;;;;;;0.37;100.00;100071.56;5023058;28;20072;-46
2022/12/13 05:47:32;;;;;;;38.35;17.13;;;;;;;0.37;100.00;100077.78;5026027;28;20052;-41
2022/12/13 05:49:59;;;;;;;39.22;17.88;;;;;;;0.38;100.00;100068.53;5025632;28;20041;-41
2022/12/13 05:52:26;;;;;;;33.17;16.65;;;;;;;0.38;100.00;100063.09;5006647;28;20439;-47
2022/12/13 05:54:56;;;;;;;30.13;17.20;;;;;;;0.39;100.00;100070.16;5024157;28;20553;-41
2022/12/13 05:57:27;;;;;;;30.33;17.65;;;;;;;0.40;100.00;100071.78;5026557;28;20049;-46
2022/12/13 05:59:54;;;;;;;31.52;16.60;;;;;;;0.43;100.00;100071.19;5025775;28;20100;-41
2022/12/13 06:02:20;;;;;;;36.08;16.85;;;;;;;0.44;100.00;100072.81;5028194;28;20057;-47
2022/12/13 06:04:48;;;;;;;24.77;15.63;;;;;;;0.46;100.00;100065.16;5041382;28;20509;-40
2022/12/13 06:07:14;;;;;;;24.67;14.98;;;;;;;0.47;100.00;100066.78;5032517;28;20227;-41
2022/12/13 06:09:41;;;;;;;28.52;14.88;;;;;;;0.47;100.00;100066.78;5029724;28;20121;-41
2022/12/13 06:12:08;;;;;;;28.80;16.15;;;;;;;0.47;100.00;100066.78;5040591;28;20045;-41
2022/12/13 06:14:55;;;;;;;31.27;18.27;;;;;;;0.47;100.00;100072.22;5034281;28;20127;-41
2022/12/13 06:17:35;;;;;;;28.97;16.07;;;;;;;0.47;100.00;100076.84;5025857;28;20041;-40
2022/12/13 06:20:04;;;;;;;23.70;15.15;;;;;;;0.48;100.00;100076.56;5029071;28;20299;-41
2022/12/13 06:22:51;;;;;;;27.67;16.40;;;;;;;0.50;100.00;100071.63;5032589;28;20046;-42
2022/12/13 06:25:18;;;;;;;24.40;14.45;;;;;;;0.52;100.00;100074.88;5024173;28;20045;-40
2022/12/13 06:27:58;;;;;;;26.10;14.85;;;;;;;0.52;100.00;100072.16;5014004;28;20391;-45
2022/12/13 06:30:28;;;;;;;23.33;13.15;;;;;;;0.52;100.00;100069.44;5029989;28;20095;-41
2022/12/13 06:32:55;;;;;;;24.60;15.27;;;;;;;0.52;100.00;100077.59;5035332;28;20495;-41
2022/12/13 06:35:22;;;;;;;21.75;13.02;;;;;;;0.52;100.00;100079.50;5027848;28;20398;-48
2022/12/13 06:37:55;;;;;;;23.23;14.82;;;;;;;0.52;100.00;100082.22;5027275;28;20076;-45
2022/12/13 06:40:27;;;;;;;22.05;13.93;;;;;;;0.53;100.00;100075.69;5016764;28;20042;-41
2022/12/13 06:42:54;;;;;;;25.15;15.95;;;;;;;0.51;100.00;100075.97;5010797;28;20038;-41
2022/12/13 06:45:21;;;;;;;26.52;15.25;;;;;;;0.52;100.00;100085.75;5029765;28;20104;-41
2022/12/13 06:47:48;;;;;;;24.30;15.75;;;;;;;0.52;100.00;100080.31;5029474;28;20049;-41
2022/12/13 06:50:16;;;;;;;27.23;16.00;;;;;;;0.51;100.00;100077.88;5029704;28;20053;-46
2022/12/13 06:52:45;;;;;;;24.67;14.50;;;;;;;0.52;100.00;100079.50;5029333;28;20045;-46
2022/12/13 06:55:12;;;;;;;24.23;15.13;;;;;;;0.52;100.00;100063.16;5032333;28;20497;-43
2022/12/13 06:57:39;;;;;;;28.88;15.27;;;;;;;0.52;100.00;100074.88;5027557;28;20042;-41
2022/12/13 07:00:08;;;;;;;22.40;13.60;;;;;;;0.52;100.00;100065.88;5028970;28;20053;-41
2022/12/13 07:02:34;;;;;;;24.08;13.80;;;;;;;0.55;100.00;100074.28;5042466;28;20123;-41
2022/12/13 07:05:01;;;;;;;21.38;14.00;;;;;;;0.55;100.00;100068.03;5047492;28;20060;-41
2022/12/13 07:07:28;;;;;;;21.08;11.60;;;;;;;0.56;100.00;100066.91;5046151;28;20489;-41
2022/12/13 07:09:55;;;;;;;15.70;10.10;;;;;;;0.57;100.00;100071.25;5047644;28;20040;-41
2022/12/13 07:12:22;;;;;;;17.65;10.13;;;;;;;0.59;100.00;100069.03;5048745;28;20056;-44
2022/12/13 07:14:49;;;;;;;17.25;9.95;;;;;;;0.60;100.00;100071.47;5031663;28;20456;-42
2022/12/13 07:17:16;;;;;;;18.77;10.77;;;;;;;0.61;100.00;100077.72;5045944;28;20099;-41
2022/12/13 07:20:02;;;;;;;18.70;9.90;;;;;;;0.60;100.00;100071.47;5047683;28;20072;-41
2022/12/13 07:22:29;;;;;;;12.00;7.07;;;;;;;0.62;100.00;100065.72;5029736;28;20521;-42
2022/12/13 07:25:03;;;;;;;12.15;7.45;;;;;;;0.63;100.00;100063.81;5045251;28;20653;-48
2022/12/13 07:27:31;;;;;;;13.05;9.00;;;;;;;0.64;100.00;100049.09;5045927;28;20063;-41
2022/12/13 07:29:58;;;;;;;10.93;6.53;;;;;;;0.64;100.00;100054.56;5049092;28;20045;-48
2022/12/13 07:32:24;;;;;;;12.65;6.28;;;;;;;0.64;100.00;100049.09;5046564;28;20077;-41
2022/12/13 07:34:51;;;;;;;12.27;6.65;;;;;;;0.64;100.00;100058.06;5044830;28;20048;-41
2022/12/13 07:37:18;;;;;;;9.70;6.22;;;;;;;0.65;100.00;100056.97;5048647;28;20045;-41
2022/12/13 07:39:58;;;;;;;10.38;5.78;;;;;;;0.65;100.00;100046.06;5048360;28;20044;-41
2022/12/13 07:42:29;;;;;;;6.35;5.15;;;;;;;0.67;100.00;100056.66;5041349;28;20053;-41
2022/12/13 07:44:56;;;;;;;10.15;5.15;;;;;;;0.70;100.00;100058.78;5048838;28;20462;-42
2022/12/13 07:47:28;;;;;;;5.55;4.43;;;;;;;0.69;100.00;100057.97;5048483;28;20079;-44
2022/12/13 07:49:55;;;;;;;8.38;4.18;;;;;;;0.67;100.00;100057.47;5048253;28;20483;-41
2022/12/13 07:52:21;;;;;;;8.07;5.13;;;;;;;0.68;100.00;100058.28;5047247;28;20064;-40
2022/12/13 07:54:49;;;;;;;7.20;4.68;;;;;;;0.69;100.00;100051.75;5048433;28;20065;-41
2022/12/13 07:57:15;;;;;;;13.25;5.15;;;;;;;0.71;100.00;100054.97;5048095;28;20057;-41
2022/12/13 07:59:42;;;;;;;7.20;4.63;;;;;;;0.75;100.00;100061.44;5048031;28;20083;-41
2022/12/13 08:02:12;;;;;;;11.27;5.32;;;;;;;0.78;100.00;100055.41;5054662;28;20145;-43
2022/12/13 08:04:40;;;;;;;6.82;4.00;;;;;;;0.82;100.00;100051.00;5048648;28;20037;-41
2022/12/13 08:07:08;;;;;;;8.63;5.63;;;;;;;0.84;100.00;100052.31;5048326;28;20458;-51
2022/12/13 08:09:35;;;;;;;11.05;5.40;;;;;;;0.87;100.00;100056.34;5047814;28;20123;-41
2022/12/13 08:12:02;;;;;;;8.82;4.53;;;;;;;0.87;100.00;100054.44;5046754;28;20595;-41
2022/12/13 08:14:29;;;;;;;12.98;5.60;;;;;;;0.89;100.00;100063.13;5042605;28;20045;-41
2022/12/13 08:16:56;;;;;;;9.63;5.60;;;;;;;0.90;100.00;100066.66;5044160;28;20053;-49
2022/12/13 08:19:23;;;;;;;14.27;6.68;;;;;;;0.91;100.00;100068.25;5043899;28;20051;-40
2022/12/13 08:21:52;;;;;;;11.35;5.60;;;;;;;0.95;100.00;100066.56;5047523;28;20060;-44
2022/12/13 08:24:25;;;;;;;10.60;6.10;;;;;;;0.97;100.00;100072.53;5041569;28;20059;-41
2022/12/13 08:26:52;;;;;;;12.40;6.13;;;;;;;1.03;100.00;100074.84;5029443;28;20395;-41
2022/12/13 08:29:18;;;;;;;12.23;5.15;;;;;;;1.09;100.00;100078.31;5048259;28;20060;-41
2022/12/13 08:32:09;;;;;;;12.03;5.50;;;;;;;1.15;100.00;100079.84;5026609;28;20677;-47
2022/12/13 08:34:36;;;;;;;12.07;7.30;;;;;;;1.19;100.00;100075.41;5047994;28;20318;-42
2022/12/13 08:37:03;;;;;;;14.55;7.32;;;;;;;1.22;100.00;100077.53;5043925;28;20056;-41
2022/12/13 08:39:33;;;;;;;12.98;7.00;;;;;;;1.23;100.00;100076.44;5048286;28;20036;-46
2022/12/13 08:42:03;;;;;;;15.10;5.70;;;;;;;1.24;100.00;100072.59;5039936;28;20379;-41
2022/12/13 08:44:47;;;;;;;10.45;5.70;;;;;;;1.24;100.00;100078.06;5044136;28;20119;-48
2022/12/13 08:47:14;;;;;;;11.05;4.53;;;;;;;1.25;100.00;100079.66;5030268;28;20376;-41
2022/12/13 08:49:52;;;;;;;8.57;4.75;;;;;;;1.29;100.00;100075.22;5047424;28;20043;-41
2022/12/13 08:52:21;;;;;;;8.05;4.72;;;;;;;1.32;100.00;100090.19;5046762;28;20049;-41
2022/12/13 08:54:48;;;;;;;9.60;5.72;;;;;;;1.32;100.00;100091.00;5047362;28;20041;-48
2022/12/13 08:57:15;;;;;;;9.43;6.13;;;;;;;1.30;100.00;100095.91;5048172;28;20385;-41
2022/12/13 08:59:41;;;;;;;12.32;5.38;;;;;;;1.28;100.00;100087.25;5046186;28;20045;-40
2022/12/13 09:02:12;;;;;;;9.50;5.28;;;;;;;1.28;100.00;100087.25;5041142;28;20048;-41
2022/12/13 09:04:38;;;;;;;14.13;6.75;;;;;;;1.27;100.00;100087.56;5031667;28;20050;-44
2022/12/13 09:07:05;;;;;;;12.77;5.43;;;;;;;1.28;100.00;100089.97;5032204;28;20053;-42
2022/12/13 09:09:32;;;;;;;10.35;5.80;;;;;;;1.29;100.00;100088.88;5028387;28;21005;-41
2022/12/13 09:11:59;;;;;;;9.80;5.47;;;;;;;1.31;100.00;100091.28;5027426;28;20069;-41
2022/12/13 09:14:26;;;;;;;11.27;5.53;;;;;;;1.33;100.00;100091.78;5022769;28;20175;-41
2022/12/13 09:17:01;;;;;;;12.18;5.78;;;;;;;1.34;100.00;100086.06;5038630;28;20111;-42
2022/12/13 09:19:29;;;;;;;10.68;6.25;;;;;;;1.36;100.00;100093.91;5028201;28;20045;-40
2022/12/13 09:22:03;;;;;;;10.00;5.88;;;;;;;1.36;100.00;100089.28;5022755;28;20049;-48
2022/12/13 09:24:30;;;;;;;8.98;5.07;;;;;;;1.36;100.00;100083.81;5026948;28;20041;-41
2022/12/13 09:27:01;;;;;;;9.65;5.10;;;;;;;1.36;100.00;100086.56;5028518;28;20519;-41
2022/12/13 09:29:35;;;;;;;10.63;5.57;;;;;;;1.35;100.00;100079.47;5027930;28;20406;-41
2022/12/13 09:32:02;;;;;;;10.57;6.65;;;;;;;1.37;100.00;100080.00;5028443;28;20053;-40
2022/12/13 09:34:29;;;;;;;7.82;5.63;;;;;;;1.36;100.00;100083.81;5028728;28;20037;-41
2022/12/13 09:36:57;;;;;;;10.98;6.43;;;;;;;1.36;100.00;100086.56;5028028;28;20865;-41
2022/12/13 09:39:28;;;;;;;10.82;5.63;;;;;;;1.37;100.00;100080.00;5028637;28;20056;-41
2022/12/13 09:41:56;;;;;;;12.63;6.47;;;;;;;1.39;100.00;100094.13;5028258;28;20041;-41
2022/12/13 09:44:33;;;;;;;10.25;5.60;;;;;;;1.43;100.00;100099.81;5028262;28;20041;-41
2022/12/13 09:47:25;;;;;;;10.82;5.97;;;;;;;1.44;100.00;100096.75;5018816;28;20053;-41
2022/12/13 09:50:07;;;;;;;14.80;6.28;;;;;;;1.45;100.00;100092.94;5028271;28;20048;-41
2022/12/13 09:52:41;;;;;;;11.73;6.70;;;;;;;1.48;100.00;100097.81;5028373;28;20056;-44
2022/12/13 09:55:21;;;;;;;8.85;5.60;;;;;;;1.52;100.00;100089.81;5027238;28;20116;-40
2022/12/13 09:57:50;;;;;;;18.02;7.40;;;;;;;1.55;100.00;100102.84;5028515;28;20549;-40
2022/12/13 10:00:22;;;;;;;13.30;6.28;;;;;;;1.55;100.00;100098.19;5028276;28;20050;-42
2022/12/13 10:02:59;;;;;;;10.00;5.72;;;;;;;1.56;100.00;100099.81;5010664;28;20053;-43
2022/12/13 10:05:34;;;;;;;11.77;7.20;;;;;;;1.59;100.00;100104.66;4991647;28;20053;-48
2022/12/13 10:08:11;;;;;;;9.88;5.38;;;;;;;1.62;100.00;100103.25;4972700;28;20046;-47
2022/12/13 10:10:38;;;;;;;8.20;5.43;;;;;;;1.65;100.00;100102.66;4997858;28;20751;-48
2022/12/13 10:13:31;;;;;;;13.32;6.00;;;;;;;1.68;100.00;100097.41;4992345;28;20068;-46
2022/12/13 10:16:02;;;;;;;;;;;;;;;1.70;100.00;100106.09;4994914;28;20106;-50
2022/12/13 10:18:37;;;;;;;12.82;6.47;;;;;;;1.72;100.00;100103.06;4995800;28;20363;-49
2022/12/13 10:21:10;;;;;;;13.27;6.63;;;;;;;1.72;100.00;100098.41;4995687;28;20049;-46
2022/12/13 10:23:37;;;;;;;12.50;5.63;;;;;;;1.74;100.00;100101.66;4996411;28;20046;-45
2022/12/13 10:26:24;;;;;;;14.27;6.20;;;;;;;1.76;100.00;100099.44;4995421;28;20049;-43
2022/12/13 10:29:01;;;;;;;9.30;5.20;;;;;;;1.81;100.00;100096.59;4974555;28;21954;-43
2022/12/13 10:31:28;;;;;;;12.60;5.95;;;;;;;1.87;100.00;100105.50;4981195;28;20119;-43
2022/12/13 10:33:56;;;;;;;7.85;4.43;;;;;;;1.92;100.00;100104.59;4995128;28;20053;-44
2022/12/13 10:36:32;;;;;;;13.20;5.20;;;;;;;1.99;100.00;100105.78;4995902;28;20056;-46
2022/12/13 10:39:01;;;;;;;10.77;5.40;;;;;;;2.01;100.00;100100.03;4975971;28;20886;-43
2022/12/13 10:41:30;;;;;;;6.47;3.53;;;;;;;1.98;100.00;100103.38;4995609;28;20198;-44
2022/12/13 10:44:29;;;;;;;7.57;4.10;;;;;;;1.98;100.00;100100.66;4995489;28;20037;-47
2022/12/13 10:47:12;;;;;;;10.45;4.78;;;;;;;1.98;100.00;100106.09;4959356;28;20775;-42
2022/12/13 10:49:53;;;;;;;9.35;3.88;;;;;;;1.95;100.00;100112.16;4994988;28;20064;-45
2022/12/13 10:52:40;;;;;;;6.55;3.53;;;;;;;1.93;100.00;100093.38;4994906;28;20042;-46
2022/12/13 10:55:34;;;;;;;7.70;4.60;;;;;;;1.94;100.00;100099.63;5029476;28;20041;-41
2022/12/13 10:58:08;;;;;;;8.10;3.28;;;;;;;1.91;100.00;100089.34;5031580;28;20055;-47
2022/12/13 11:00:44;;;;;;;4.60;2.83;;;;;;;1.94;100.00;100096.88;5011881;28;20115;-41
2022/12/13 11:03:32;;;;;;;6.20;3.78;;;;;;;1.96;100.00;100087.28;5053166;28;20080;-41
2022/12/13 11:06:17;;;;;;;5.53;3.55;;;;;;;1.99;100.00;100096.78;5044091;28;20460;-42
2022/12/13 11:08:43;;;;;;;6.25;4.20;;;;;;;2.04;100.00;100099.44;5045127;28;20052;-42
2022/12/13 11:11:11;;;;;;;7.18;3.30;;;;;;;2.10;100.00;100095.47;5056802;28;20056;-41
2022/12/13 11:13:45;;;;;;;6.47;3.05;;;;;;;2.16;100.00;100091.53;5064014;28;20398;-50
2022/12/13 11:16:20;;;;;;;6.95;4.05;;;;;;;2.24;100.00;100093.53;5052902;28;20398;-43
2022/12/13 11:18:53;;;;;;;8.02;3.88;;;;;;;2.28;100.00;100097.25;5053177;28;20102;-43
2022/12/13 11:21:25;;;;;;;6.72;3.17;;;;;;;2.30;100.00;100095.06;5048211;28;20082;-47
2022/12/13 11:23:53;;;;;;;;;;;;;;;2.31;100.00;100102.13;5066394;28;20049;-42
2022/12/13 11:26:22;;;;;;;4.68;2.75;;;;;;;2.32;100.00;100088.16;5063834;28;20290;-42
2022/12/13 11:28:57;;;;;;;5.75;2.78;;;;;;;2.35;100.00;100087.56;5058494;28;20045;-43
2022/12/13 11:31:42;;;;;;;7.68;3.55;;;;;;;2.38;100.00;100086.13;5055462;28;20068;-42
2022/12/13 11:34:15;;;;;;;7.63;3.40;;;;;;;2.38;100.00;100092.38;5066575;28;20051;-43